Rockville, Utah
Current Conditions -  °F | °C
As of 2:35 PM on Thursday 23 Oct 2014 (Local Time) from KAZC Reporting Station
Clear Clear  
Wind Chill: 76°   Ceiling: Unl
Heat Index: 77°   Visibility: 10mi
Dew Point: 31°   Wind: 0mph
Humidity: 19%   Direction: NA
Pressure: 30.21"   Gusts: NA
Location:  37.16°N, 113.04°W
Report Text: KAZC 232035Z AUTO 00000KT 10SM CLR 25/M01 A3021 RMK AO2 T02471007
Loading
Personal Weather Stations






























Interactive Weather Map
Tropical Storm Tracking
New forecast layout! Learn more

10-Day Weather Forecast

Advertisements
Track Severe Weather on mobile